• Join FlightAware (Why Join?)
  • Login
  • US Flag 
02:31AM EDT


 

Airport Tracker/Info


-or-


 

Live Flight TrackerFlight Track Log ✈ RPA3321 ✈ 14-Oct-2013 ✈ KALB - KDCA

Flight Track Log - Related Links

Times and Time Zones

All times are in EDT time to prevent confusion due to time zone crossing. See the RPA3321 flight status page for this flight to view local times or setup timezone preferences in your user account.

Time Position Orientation Groundspeed Altitude Reporting Facility
EDT Latitude Longitude Course Direction KTS MPH feet Rate Location/Type
05:38AM 42.7297 -73.8081 166° South 150 173 1,200  Level Boston Center
05:38AM 42.7172 -73.8050 170° South 153 176 2,100 2,040 Climbing Boston Center
05:39AM 42.6669 -73.8294 200° South 232 267 3,900 1,860 Climbing Boston Center
05:40AM 42.5291 -73.9973 180° South  Level Estimated
05:40AM 42.6622 -73.8772 262° West 249 287 5,100  Level Boston Center
05:41AM 42.4557 -74.0621 172° South  Level Estimated
05:41AM 42.6692 -73.9761 275° West 260 299 7,900  Level Boston Center
05:42AM 42.3929 -73.9794 136° Southeast  Level FlightAware Approximate
05:42AM 42.6761 -74.0808 275° West 276 318 10,900  Level Boston Center
05:43AM 42.3205 -74.0461 166° South  Level Estimated
05:43AM 42.6722 -74.2078 268° West 297 342 13,200  Level Boston Center
05:44AM 42.5967 -74.2311 193° South 273 314 15,300 2,280 Climbing Boston Center
05:45AM 42.5061 -74.1636 151° Southeast 290 334 17,800 2,100 Climbing Boston Center
05:46AM 42.4169 -74.1331 166° South 331 381 19,500 1,740 Climbing Boston Center
05:47AM 42.3208 -74.1472 186° South 336 387 21,300 1,740 Climbing Boston Center
05:48AM 42.2247 -74.1644 188° South 342 394 23,000 1,620 Climbing Boston Center
05:49AM 42.1264 -74.1814 187° South 354 407 24,600 1,380 Climbing Boston Center
05:50AM 42.0242 -74.2008 188° South 359 413 25,800 420 Climbing Boston Center
05:52AM 41.8231 -74.2308 186° South 352 405 26,000 60 Climbing New York Center
05:53AM 41.7225 -74.2478 187° South 357 411 26,000  Level New York Center
05:54AM 41.6244 -74.2619 186° South 357 411 26,000  Level New York Center
05:55AM 41.5386 -74.2742 186° South 357 411 26,000  Level New York Center
05:56AM 41.4381 -74.2939 188° South 357 411 26,000  Level New York Center
05:57AM 41.3417 -74.3108 188° South 357 411 26,000  Level New York Center
05:58AM 41.2394 -74.3247 186° South 362 417 26,000  Level New York Center
06:04AM 40.7780 -74.6910 186° South 100 115 26,000  Level FlightAware
06:04AM 40.7650 -74.7030 215° Southwest 100 115 26,000  Level FlightAware
06:05AM 40.7530 -74.7130 212° Southwest 100 115 26,000  Level FlightAware
06:05AM 40.7410 -74.7220 210° Southwest 100 115 26,000  Level FlightAware
06:06AM 40.7290 -74.7320 212° Southwest 100 115 26,000  Level FlightAware
06:07AM 40.7170 -74.7420 212° Southwest 100 115 26,000  Level FlightAware
06:07AM 40.7040 -74.7520 210° Southwest 100 115 26,000 -720 Level FlightAware
06:09AM 40.3672 -75.1650 210° Southwest 369 425 24,600 -600 Descending New York Center
06:15AM 39.9510 -75.6380 210° Southwest 100 115 21,900 -540 Descending FlightAware
06:15AM 39.9180 -75.6920 231° Southwest 345 397 21,300 -720 Descending FlightAware
06:16AM 39.8810 -75.7490 230° Southwest 332 382 21,000 -240 Descending FlightAware
06:17AM 39.8500 -75.7960 229° Southwest 332 382 21,000  Level FlightAware
06:17AM 39.8200 -75.8430 230° Southwest 332 382 21,000  Level FlightAware
06:18AM 39.7890 -75.8910 230° Southwest 332 382 21,000  Level FlightAware
06:18AM 39.7590 -75.9380 230° Southwest 332 382 21,000  Level FlightAware
06:19AM 39.7280 -75.9860 230° Southwest 332 382 21,000 -3,120 Level FlightAware
06:20AM 39.6167 -76.1667 230° Southwest 318 366 15,200 -3,240 Descending Potomac TRACON
06:21AM 39.5667 -76.2500 232° Southwest 317 365 14,100 -1,200 Descending Potomac TRACON
06:22AM 39.5000 -76.3333 224° Southwest 317 365 13,000 -1,200 Descending Potomac TRACON
06:23AM 39.4500 -76.4000 226° Southwest 300 345 11,900 -1,200 Descending Potomac TRACON
06:24AM 39.4000 -76.4667 226° Southwest 301 346 10,900 -1,020 Descending Potomac TRACON
06:25AM 39.3333 -76.5333 218° Southwest 292 336 10,000 -480 Descending Potomac TRACON
06:26AM 39.2500 -76.5833 205° Southwest 293 337 10,000  Level Potomac TRACON
06:27AM 39.2000 -76.6333 218° Southwest 294 338 10,000  Level Potomac TRACON
06:28AM 39.1333 -76.7000 218° Southwest 296 341 10,000 -660 Level Potomac TRACON
06:29AM 39.0833 -76.7667 226° Southwest 289 333 8,700 -1,080 Descending Potomac TRACON
06:30AM 39.0167 -76.8333 218° Southwest 262 302 7,900 -960 Descending Potomac TRACON
06:31AM 38.9667 -76.9000 226° Southwest 214 246 6,800 -900 Descending Potomac TRACON
06:32AM 38.9167 -76.9333 207° Southwest 221 254 6,000 -1,020 Descending Potomac TRACON
06:33AM 38.8667 -76.9500 195° South 220 253 4,900 -1,080 Descending Potomac TRACON
06:34AM 38.8167 -76.9500 180° South 198 228 4,000 -660 Descending Potomac TRACON
06:35AM 38.7667 -76.9500 180° South 180 207 3,600 -720 Descending Potomac TRACON
06:36AM 38.7167 -76.9333 165° South 178 205 2,600 -780 Descending Potomac TRACON
06:37AM 38.7000 -77.0000 252° West 188 216 2,000 -360 Descending Potomac TRACON
06:38AM 38.7333 -77.0167 339° North 175 201 2,000 -480 Level Potomac TRACON
06:39AM 38.7833 -77.0333 345° North 140 161 1,200 -720 Descending Potomac TRACON
06:40AM 38.8167 -77.0333 360° North 119 137 600 -600 Descending Potomac TRACON